Main page


Airports :

Lydd, England

Lydd Airport

latitude: 50-57N, longitude: 000-56E, elevation: 3 m

Current weather observation

The report was made 26 minutes ago, at 17:20 UTC
Wind 13 kt from the North/Northeast
Temperature 7°C
Humidity 61%
Pressure 1030 hPa
Visibility 10 km or more
Few clouds at a height of 3500 ft

METAR: EGMD 201720Z 03013KT 9999 FEW035 07/M00 Q1030

Time: 17:46 (17:46 UTC)


The report was made 44 minutes ago, at 17:02 UTC
Forecast valid from 20 at 18 UTC to 21 at 03 UTC
Wind 10 kt from the North/Northeast
Visibility 10 km or more
Scattered clouds at a height of 3500 ft

TAF: EGMD 201702Z 2018/2103 03010KT 9999 SCT035

Weather observations and forecasts of more than 4000 airports (METAR and TAF reports).

The available stations are represented by yellow and red dots on the map.

Hover mouse over dot to see the name of the station.

Then click to see weather observations and forecasts.

To change the map : click on the green buttons with a black cross to zoom in, on the green button with a dash to zoom out, or on the green arrows for adjacent maps.